createdAt,value
2023-01-04T00:04:39.133Z,67.07
2023-01-04T00:09:40.590Z,67.59
2023-01-04T00:14:42.094Z,68.33
2023-01-04T00:19:43.700Z,67.99
2023-01-04T00:24:45.499Z,67.85
2023-01-04T00:29:47.012Z,67.39
2023-01-04T00:34:48.567Z,67.43
2023-01-04T00:39:50.148Z,66.92
2023-01-04T00:44:51.619Z,66.71
2023-01-04T00:49:53.047Z,66.48
2023-01-04T00:54:54.566Z,66.57
2023-01-04T00:59:56.073Z,67.17
2023-01-04T01:04:57.535Z,68.27
2023-01-04T01:09:59.064Z,68.61
2023-01-04T01:15:00.997Z,68.22
2023-01-04T01:20:04.762Z,68.31
2023-01-04T01:25:06.619Z,68.31
2023-01-04T01:30:09.813Z,67.83
2023-01-04T01:35:11.277Z,68.40
2023-01-04T01:40:12.860Z,68.76
2023-01-04T01:45:30.927Z,68.88
2023-01-04T01:50:38.666Z,67.89
2023-01-04T01:55:42.346Z,68.32
2023-01-04T02:00:43.818Z,69.23
2023-01-04T02:05:48.920Z,68.58
2023-01-04T02:10:51.109Z,68.06
2023-01-04T02:16:04.825Z,68.28
2023-01-04T02:21:23.335Z,67.94
2023-01-04T02:26:54.712Z,67.39
2023-01-04T02:32:03.731Z,67.51
2023-01-04T02:37:25.769Z,67.61
2023-01-04T02:42:57.705Z,67.63
2023-01-04T02:48:04.193Z,67.69
2023-01-04T02:53:15.042Z,67.65
2023-01-04T02:58:53.780Z,67.63
2023-01-04T03:04:33.654Z,68.02
2023-01-04T03:09:39.958Z,68.50
2023-01-04T03:14:50.563Z,68.77
2023-01-04T03:19:53.873Z,68.54
2023-01-04T03:24:56.707Z,69.04
2023-01-04T03:30:06.872Z,68.92
2023-01-04T03:35:08.415Z,69.07
2023-01-04T03:40:25.950Z,70.45
2023-01-04T03:45:32.798Z,70.78
2023-01-04T03:50:41.536Z,70.39
2023-01-04T03:55:43.967Z,70.46
2023-01-04T04:00:46.887Z,70.26
2023-01-04T04:05:48.467Z,70.30
2023-01-04T04:10:50.369Z,69.98
2023-01-04T04:15:54.603Z,69.82
2023-01-04T04:20:59.033Z,70.06
2023-01-04T04:26:00.492Z,69.37
2023-01-04T04:31:02.335Z,69.46
2023-01-04T04:36:04.271Z,69.42
2023-01-04T04:41:07.470Z,68.40
2023-01-04T04:46:09.058Z,68.27
2023-01-04T04:51:10.557Z,67.57
2023-01-04T04:56:12.253Z,67.38
2023-01-04T05:01:13.855Z,67.74
2023-01-04T05:06:15.529Z,68.12
2023-01-04T05:11:17.130Z,68.37
2023-01-04T05:16:18.705Z,68.26
2023-01-04T05:21:20.590Z,68.25
2023-01-04T05:26:22.136Z,68.80
2023-01-04T05:31:24.871Z,68.85
2023-01-04T05:36:26.434Z,67.90
2023-01-04T05:41:27.945Z,68.11
2023-01-04T05:46:29.455Z,66.94
2023-01-04T05:51:30.952Z,66.81
2023-01-04T05:56:32.459Z,67.57
2023-01-04T06:01:34.055Z,67.66
2023-01-04T06:06:35.620Z,68.07
2023-01-04T06:11:37.290Z,67.92
2023-01-04T06:16:38.807Z,68.26
2023-01-04T06:21:40.339Z,67.58
2023-01-04T06:26:41.897Z,67.34
2023-01-04T06:31:43.663Z,66.35
2023-01-04T06:36:45.148Z,65.86
2023-01-04T06:41:46.700Z,66.00
2023-01-04T06:46:48.196Z,65.71
2023-01-04T06:51:49.617Z,65.42
2023-01-04T06:56:51.058Z,64.84
2023-01-04T07:01:52.631Z,65.42
2023-01-04T07:06:54.281Z,65.36
2023-01-04T07:11:55.753Z,65.78
2023-01-04T07:16:57.235Z,65.81
2023-01-04T07:21:58.954Z,66.76
2023-01-04T07:27:00.798Z,66.04
2023-01-04T07:32:02.299Z,66.32
2023-01-04T07:37:04.588Z,67.08
2023-01-04T07:42:06.063Z,67.12
2023-01-04T07:47:07.580Z,67.14
2023-01-04T07:52:09.022Z,67.58
2023-01-04T07:57:10.480Z,67.73
2023-01-04T08:02:12.343Z,68.31
2023-01-04T08:07:13.994Z,68.56
2023-01-04T08:12:15.534Z,67.99
2023-01-04T08:17:16.989Z,68.62
2023-01-04T08:22:18.517Z,68.72
2023-01-04T08:27:20.065Z,68.98
2023-01-04T08:32:21.540Z,68.91
2023-01-04T08:37:23.059Z,68.89
2023-01-04T08:42:30.744Z,68.84
2023-01-04T08:47:33.577Z,66.52
2023-01-04T08:52:35.092Z,66.54
2023-01-04T08:57:36.613Z,66.11
2023-01-04T09:02:38.213Z,65.41
2023-01-04T09:07:39.767Z,65.29
2023-01-04T09:12:41.214Z,63.83
2023-01-04T09:18:05.237Z,63.43
2023-01-04T09:23:04.307Z,63.02
2023-01-04T09:28:05.825Z,63.20
2023-01-04T09:33:07.294Z,61.89
2023-01-04T09:38:08.735Z,60.53
2023-01-04T09:43:21.554Z,59.64
2023-01-04T09:48:29.313Z,60.15
2023-01-04T09:53:39.923Z,58.90
2023-01-04T09:58:42.578Z,59.54
2023-01-04T10:04:13.040Z,57.76
2023-01-04T10:09:16.523Z,58.35
2023-01-04T10:14:23.956Z,58.52
2023-01-04T10:25:15.295Z,58.56
2023-01-04T10:30:28.812Z,58.35
2023-01-04T10:35:33.029Z,57.53
2023-01-04T10:40:39.307Z,57.13
2023-01-04T10:45:51.488Z,56.00
2023-01-04T10:51:02.155Z,55.51
2023-01-04T10:56:23.982Z,55.49
2023-01-04T11:01:49.249Z,54.43
2023-01-04T11:07:01.233Z,53.75
2023-01-04T11:12:03.319Z,53.39
2023-01-04T11:17:08.353Z,53.30
2023-01-04T11:22:29.117Z,51.87
2023-01-04T11:27:39.807Z,52.12
2023-01-04T11:33:03.346Z,51.77
2023-01-04T11:38:20.415Z,51.10
2023-01-04T11:43:23.492Z,51.72
2023-01-04T11:48:36.311Z,51.35
2023-01-04T11:53:37.871Z,50.21
2023-01-04T11:58:40.317Z,50.06
2023-01-04T12:03:41.843Z,48.55
2023-01-04T12:08:43.413Z,50.41
2023-01-04T12:13:44.959Z,50.17
2023-01-04T12:18:46.600Z,48.82
2023-01-04T12:23:48.988Z,49.19
2023-01-04T12:29:12.357Z,48.34
2023-01-04T12:34:13.803Z,50.34
2023-01-04T12:39:15.226Z,49.35
2023-01-04T12:44:38.436Z,49.28
2023-01-04T12:49:39.903Z,49.71
2023-01-04T12:54:56.126Z,49.57
2023-01-04T12:59:59.551Z,49.87
2023-01-04T13:10:49.777Z,49.81
2023-01-04T13:16:10.144Z,50.07
2023-01-04T13:21:27.454Z,50.26
2023-01-04T13:26:42.194Z,49.60
2023-01-04T13:31:55.528Z,48.85
2023-01-04T13:37:00.003Z,48.13
2023-01-04T13:42:02.461Z,47.79
2023-01-04T13:47:04.062Z,49.37
2023-01-04T13:58:01.394Z,47.13
2023-01-04T14:03:17.539Z,47.72
2023-01-04T14:08:33.028Z,47.09
2023-01-04T14:13:34.592Z,46.85
2023-01-04T14:18:36.138Z,47.90
2023-01-04T14:23:37.655Z,48.03
2023-01-04T14:28:46.948Z,47.38
2023-01-04T14:33:52.907Z,48.62
2023-01-04T14:38:59.419Z,47.24
2023-01-04T14:44:00.886Z,48.39
2023-01-04T14:49:02.536Z,48.56
2023-01-04T14:54:07.675Z,48.98
2023-01-04T14:59:09.598Z,49.73
2023-01-04T15:04:11.234Z,50.42
2023-01-04T15:09:12.736Z,50.56
2023-01-04T15:14:14.318Z,52.54
2023-01-04T15:19:16.032Z,52.72
2023-01-04T15:24:17.518Z,53.97
2023-01-04T15:29:18.990Z,54.24
2023-01-04T15:34:20.441Z,54.68
2023-01-04T15:39:22.011Z,55.60
2023-01-04T15:44:23.562Z,55.62
2023-01-04T15:49:25.068Z,55.49
2023-01-04T15:54:27.887Z,56.34
2023-01-04T15:59:29.472Z,55.75
2023-01-04T16:04:30.980Z,56.11
2023-01-04T16:09:32.609Z,56.88
2023-01-04T16:14:34.131Z,56.64
2023-01-04T16:19:35.581Z,56.94
2023-01-04T16:25:09.335Z,57.26
2023-01-04T16:29:59.538Z,56.97
2023-01-04T16:35:01.048Z,57.51
2023-01-04T16:40:07.336Z,57.49
2023-01-04T16:45:10.004Z,56.79
2023-01-04T16:50:12.563Z,56.00
2023-01-04T16:55:16.224Z,55.71
2023-01-04T17:00:21.589Z,55.20
2023-01-04T17:05:23.107Z,55.40
2023-01-04T17:10:29.319Z,55.04
2023-01-04T17:15:46.569Z,55.96
2023-01-04T17:21:06.073Z,56.34
2023-01-04T17:26:20.101Z,56.52
2023-01-04T17:31:33.947Z,56.40
2023-01-04T17:36:36.797Z,55.83
2023-01-04T17:41:38.376Z,55.93
2023-01-04T17:46:39.830Z,55.43
2023-01-04T17:51:41.336Z,55.60
2023-01-04T17:56:42.794Z,55.28
2023-01-04T18:01:44.341Z,55.16
2023-01-04T18:06:45.872Z,54.91
2023-01-04T18:11:47.352Z,54.68
2023-01-04T18:16:48.993Z,54.72
2023-01-04T18:21:50.480Z,54.86
2023-01-04T18:32:13.640Z,54.92
2023-01-04T18:37:15.217Z,54.79
2023-01-04T18:42:16.952Z,55.48
2023-01-04T18:47:20.190Z,55.04
2023-01-04T18:52:21.966Z,54.49
2023-01-04T18:57:23.534Z,55.04
2023-01-04T19:02:25.643Z,54.80
2023-01-04T19:07:27.435Z,54.89
2023-01-04T19:12:28.935Z,54.46
2023-01-04T19:17:30.448Z,55.01
2023-01-04T19:22:31.925Z,53.82
2023-01-04T19:27:33.738Z,54.01
2023-01-04T19:32:35.279Z,54.66
2023-01-04T19:37:36.779Z,54.61
2023-01-04T19:42:38.387Z,54.81
2023-01-04T19:47:39.907Z,55.40
2023-01-04T19:52:41.435Z,55.24
2023-01-04T19:57:42.994Z,54.29
2023-01-04T20:02:44.635Z,54.66
2023-01-04T20:07:46.293Z,54.58
2023-01-04T20:12:47.795Z,53.76
2023-01-04T20:17:49.355Z,54.11
2023-01-04T20:22:50.836Z,54.24
2023-01-04T20:27:52.367Z,54.56
2023-01-04T20:32:53.895Z,54.79
2023-01-04T20:37:55.456Z,54.19
2023-01-04T20:42:56.989Z,54.52
2023-01-04T20:47:58.497Z,53.76
2023-01-04T20:53:00.043Z,54.34
2023-01-04T20:58:01.611Z,55.16
2023-01-04T21:03:05.374Z,55.31
2023-01-04T21:08:07.098Z,55.01
2023-01-04T21:13:10.047Z,54.55
2023-01-04T21:18:11.585Z,54.81
2023-01-04T21:23:18.705Z,55.03
2023-01-04T21:28:21.657Z,54.39
2023-01-04T21:33:23.424Z,54.46
2023-01-04T21:38:24.924Z,54.12
2023-01-04T21:43:26.354Z,54.55
2023-01-04T21:48:27.851Z,55.13
2023-01-04T21:53:33.958Z,54.86
2023-01-04T21:58:35.931Z,54.93
2023-01-04T22:03:38.682Z,55.39
2023-01-04T22:08:41.123Z,54.93
2023-01-04T22:13:43.251Z,54.67
2023-01-04T22:18:48.710Z,54.03
2023-01-04T22:23:51.039Z,54.41
2023-01-04T22:28:52.508Z,54.34
2023-01-04T22:33:54.000Z,55.21
2023-01-04T22:38:57.034Z,56.90
2023-01-04T22:44:04.393Z,57.52
2023-01-04T22:49:12.262Z,58.47
2023-01-04T22:54:17.590Z,58.92
2023-01-04T22:59:19.867Z,59.59
2023-01-04T23:04:24.041Z,61.26
2023-01-04T23:09:27.132Z,62.75
2023-01-04T23:14:31.827Z,62.85
2023-01-04T23:19:38.906Z,63.49
2023-01-04T23:24:41.768Z,63.38
2023-01-04T23:42:14.604Z,63.70
2023-01-04T23:47:17.773Z,63.58
2023-01-04T23:52:19.677Z,63.97
2023-01-04T23:57:21.217Z,63.63
